createdAt,value
2018-01-08T00:02:57.113Z,102974.67
2018-01-08T00:06:07.015Z,102973.56
2018-01-08T00:09:17.160Z,102971.21
2018-01-08T00:12:27.205Z,102967.81
2018-01-08T00:15:38.723Z,102971.42
2018-01-08T00:18:55.680Z,102968.75
2018-01-08T00:22:07.179Z,102959.80
2018-01-08T00:25:21.576Z,102957.20
2018-01-08T00:28:35.145Z,102964.31
2018-01-08T00:31:46.820Z,102959.62
2018-01-08T00:34:57.493Z,102952.69
2018-01-08T00:38:08.435Z,102960.88
2018-01-08T00:41:20.166Z,102956.61
2018-01-08T00:44:31.451Z,102954.47
2018-01-08T00:47:41.372Z,102957.10
2018-01-08T00:50:49.778Z,102961.00
2018-01-08T00:53:59.097Z,102958.14
2018-01-08T00:57:09.819Z,102962.31
2018-01-08T01:00:19.460Z,102966.38
2018-01-08T01:03:29.490Z,102965.67
2018-01-08T01:06:41.140Z,102960.41
2018-01-08T01:09:50.420Z,102958.33
2018-01-08T01:13:02.628Z,102959.09
2018-01-08T01:16:14.214Z,102948.02
2018-01-08T01:19:26.836Z,102943.90
2018-01-08T01:22:36.919Z,102941.78
2018-01-08T01:25:50.059Z,102944.47
2018-01-08T01:29:02.012Z,102931.70
2018-01-08T01:32:12.224Z,102934.63
2018-01-08T01:35:24.446Z,102938.45
2018-01-08T01:38:36.515Z,102937.82
2018-01-08T01:41:47.271Z,102935.63
2018-01-08T01:44:57.014Z,102946.23
2018-01-08T01:48:07.870Z,102948.67
2018-01-08T01:51:18.719Z,102949.95
2018-01-08T01:54:30.317Z,102942.44
2018-01-08T01:57:41.075Z,102937.89
2018-01-08T02:00:56.268Z,102952.73
2018-01-08T02:04:06.628Z,102961.30
2018-01-08T02:07:18.282Z,102964.47
2018-01-08T02:10:27.274Z,102973.42
2018-01-08T02:13:39.487Z,102971.12
2018-01-08T02:16:49.902Z,102972.08
2018-01-08T02:20:00.362Z,102969.66
2018-01-08T02:23:10.891Z,102968.73
2018-01-08T02:26:20.967Z,102977.75
2018-01-08T02:29:32.557Z,102976.38
2018-01-08T02:32:43.613Z,102975.02
2018-01-08T02:35:54.536Z,102970.75
2018-01-08T02:39:05.594Z,102971.67
2018-01-08T02:42:22.020Z,102972.89
2018-01-08T02:45:33.355Z,102975.91
2018-01-08T02:48:45.803Z,102990.23
2018-01-08T02:51:57.415Z,102981.72
2018-01-08T02:55:10.323Z,102976.23
2018-01-08T02:58:22.188Z,102974.17
2018-01-08T03:01:32.843Z,102973.98
2018-01-08T03:04:43.637Z,102970.71
2018-01-08T03:07:55.136Z,102968.94
2018-01-08T03:11:07.547Z,102956.47
2018-01-08T03:14:18.138Z,102940.31
2018-01-08T03:20:51.017Z,102931.85
2018-01-08T03:24:02.068Z,102928.55
2018-01-08T03:27:11.959Z,102929.48
2018-01-08T03:30:21.030Z,102933.48
2018-01-08T03:33:33.480Z,102943.84
2018-01-08T03:36:45.524Z,102945.23
2018-01-08T03:39:57.554Z,102937.34
2018-01-08T03:43:09.101Z,102938.00
2018-01-08T03:46:20.905Z,102930.34
2018-01-08T03:49:31.277Z,102921.52
2018-01-08T03:52:42.149Z,102925.45
2018-01-08T03:55:57.138Z,102931.09
2018-01-08T03:59:08.022Z,102932.63
2018-01-08T04:02:17.650Z,102932.92
2018-01-08T04:05:30.158Z,102931.45
2018-01-08T04:08:40.531Z,102931.59
2018-01-08T04:11:50.987Z,102938.03
2018-01-08T04:15:05.161Z,102950.03
2018-01-08T04:18:15.696Z,102954.00
2018-01-08T04:21:26.220Z,102942.20
2018-01-08T04:24:39.400Z,102947.78
2018-01-08T04:28:05.838Z,102948.37
2018-01-08T04:31:17.317Z,102932.16
2018-01-08T04:34:27.580Z,102939.63
2018-01-08T04:37:38.262Z,102940.02
2018-01-08T04:40:48.713Z,102937.94
2018-01-08T04:43:59.151Z,102945.67
2018-01-08T04:47:09.607Z,102937.64
2018-01-08T04:50:22.100Z,102934.53
2018-01-08T04:53:37.064Z,102956.02
2018-01-08T04:56:48.330Z,102956.67
2018-01-08T04:59:58.676Z,102952.02
2018-01-08T05:03:10.665Z,102959.47
2018-01-08T05:06:20.415Z,102965.84
2018-01-08T05:09:31.089Z,102964.53
2018-01-08T05:12:42.828Z,102968.81
2018-01-08T05:15:51.777Z,102965.09
2018-01-08T05:19:01.141Z,102960.38
2018-01-08T05:22:12.557Z,102961.75
2018-01-08T05:25:21.364Z,102956.97
2018-01-08T05:28:31.509Z,102957.40
2018-01-08T05:31:52.269Z,102962.65
2018-01-08T05:35:21.975Z,102968.03
2018-01-08T05:38:57.019Z,102966.71
2018-01-08T05:42:07.006Z,102967.53
2018-01-08T05:45:16.981Z,102962.35
2018-01-08T05:48:26.811Z,102958.37
2018-01-08T05:51:36.984Z,102957.38
2018-01-08T05:54:46.449Z,102966.06
2018-01-08T05:57:55.800Z,102970.39
2018-01-08T06:01:06.157Z,102977.89
2018-01-08T06:04:16.055Z,102977.91
2018-01-08T06:07:24.804Z,102969.03
2018-01-08T06:10:34.349Z,102962.73
2018-01-08T06:13:43.642Z,102959.83
2018-01-08T06:16:55.271Z,102969.24
2018-01-08T06:20:05.731Z,102972.16
2018-01-08T06:23:34.214Z,102974.12
2018-01-08T06:26:47.254Z,102974.00
2018-01-08T06:30:00.554Z,102972.37
2018-01-08T06:33:08.517Z,102975.70
2018-01-08T06:36:24.094Z,102965.39
2018-01-08T06:39:35.277Z,102970.29
2018-01-08T06:42:46.810Z,102982.09
2018-01-08T06:45:57.444Z,102979.37
2018-01-08T06:49:08.637Z,102971.38
2018-01-08T06:52:18.820Z,102981.48
2018-01-08T06:55:31.094Z,102981.21
2018-01-08T06:58:44.740Z,102977.92
2018-01-08T07:01:58.454Z,102974.69
2018-01-08T07:05:11.446Z,102974.70
2018-01-08T07:08:20.044Z,102977.92
2018-01-08T07:11:30.721Z,102974.02
2018-01-08T07:14:43.412Z,102975.20
2018-01-08T07:17:54.960Z,102978.01
2018-01-08T07:21:04.667Z,102970.98
2018-01-08T07:24:16.891Z,102977.61
2018-01-08T07:27:27.410Z,102969.70
2018-01-08T07:30:38.309Z,102971.07
2018-01-08T07:33:48.204Z,102968.38
2018-01-08T07:36:59.809Z,102974.75
2018-01-08T07:40:10.187Z,102982.53
2018-01-08T07:43:20.908Z,102984.58
2018-01-08T07:46:33.383Z,102979.59
2018-01-08T07:49:45.556Z,102983.72
2018-01-08T07:52:58.650Z,102978.59
2018-01-08T07:56:08.601Z,102979.75
2018-01-08T07:59:18.087Z,102983.86
2018-01-08T08:09:48.215Z,102996.73
2018-01-08T08:13:00.070Z,102993.36
2018-01-08T08:16:08.974Z,102995.87
2018-01-08T08:19:20.684Z,102989.70
2018-01-08T08:22:29.949Z,102995.16
2018-01-08T08:25:39.882Z,102992.64
2018-01-08T08:28:50.925Z,102984.87
2018-01-08T08:32:01.156Z,103001.85
2018-01-08T08:35:12.735Z,102986.20
2018-01-08T08:38:23.306Z,102990.28
2018-01-08T08:41:37.705Z,102988.09
2018-01-08T08:44:48.758Z,102985.63
2018-01-08T08:47:58.300Z,102986.02
2018-01-08T08:51:10.054Z,102987.27
2018-01-08T08:54:21.835Z,102984.14
2018-01-08T08:57:34.604Z,102985.44
2018-01-08T09:00:45.832Z,102989.52
2018-01-08T09:03:55.487Z,102992.31
2018-01-08T09:07:07.724Z,102990.94
2018-01-08T09:10:17.461Z,102983.58
2018-01-08T09:13:28.771Z,102987.45
2018-01-08T09:16:38.622Z,102987.44
2018-01-08T09:19:48.800Z,102975.61
2018-01-08T09:23:00.124Z,102991.72
2018-01-08T09:26:12.401Z,102990.31
2018-01-08T09:29:21.510Z,102989.23
2018-01-08T09:32:33.726Z,102988.36
2018-01-08T09:35:46.482Z,102985.82
2018-01-08T09:38:55.504Z,102993.52
2018-01-08T09:42:09.332Z,102989.03
2018-01-08T09:45:20.252Z,102996.80
2018-01-08T09:48:30.033Z,103003.70
2018-01-08T09:51:47.375Z,102995.47
2018-01-08T09:54:59.292Z,102988.70
2018-01-08T09:58:12.925Z,102988.40
2018-01-08T10:01:24.140Z,102990.05
2018-01-08T10:04:44.151Z,102985.16
2018-01-08T10:08:11.305Z,102988.20
2018-01-08T10:11:36.038Z,102982.34
2018-01-08T10:15:04.579Z,102981.24
2018-01-08T10:18:29.158Z,102975.75
2018-01-08T10:21:40.207Z,102966.95
2018-01-08T10:24:50.886Z,102958.80
2018-01-08T10:28:01.931Z,102965.67
2018-01-08T10:31:14.229Z,102964.16
2018-01-08T10:34:25.141Z,102964.39
2018-01-08T10:37:36.093Z,102969.28
2018-01-08T10:40:48.392Z,102969.22
2018-01-08T10:44:05.035Z,102951.37
2018-01-08T10:47:26.360Z,102950.48
2018-01-08T10:51:02.648Z,102942.47
2018-01-08T10:54:20.246Z,102940.62
2018-01-08T10:57:31.410Z,102933.88
2018-01-08T11:00:40.900Z,102932.19
2018-01-08T11:04:13.128Z,102930.06
2018-01-08T11:07:22.974Z,102934.84
2018-01-08T11:10:42.272Z,102925.76
2018-01-08T11:13:54.443Z,102918.42
2018-01-08T11:17:07.185Z,102912.73
2018-01-08T11:20:19.022Z,102911.79
2018-01-08T11:23:28.823Z,102901.78
2018-01-08T11:26:41.286Z,102908.02
2018-01-08T11:29:54.091Z,102900.38
2018-01-08T11:33:06.492Z,102893.73
2018-01-08T11:36:16.090Z,102885.88
2018-01-08T11:39:27.034Z,102887.50
2018-01-08T11:42:37.394Z,102884.16
2018-01-08T11:45:51.881Z,102880.92
2018-01-08T11:49:00.854Z,102876.56
2018-01-08T11:52:09.270Z,102871.66
2018-01-08T11:55:32.236Z,102865.23
2018-01-08T11:58:39.694Z,102863.77
2018-01-08T12:01:49.281Z,102855.07
2018-01-08T12:04:59.242Z,102860.94
2018-01-08T12:08:07.933Z,102850.24
2018-01-08T12:11:18.880Z,102853.75
2018-01-08T12:14:28.613Z,102846.23
2018-01-08T12:17:37.980Z,102845.30
2018-01-08T12:20:45.226Z,102837.55
2018-01-08T12:23:54.590Z,102837.59
2018-01-08T12:27:05.423Z,102831.84
2018-01-08T12:30:17.306Z,102835.81
2018-01-08T12:33:28.290Z,102830.41
2018-01-08T12:36:36.845Z,102828.50
2018-01-08T12:39:48.490Z,102823.22
2018-01-08T12:43:00.123Z,102821.16
2018-01-08T12:46:11.909Z,102815.32
2018-01-08T12:49:23.703Z,102811.52
2018-01-08T12:52:35.086Z,102814.69
2018-01-08T12:55:50.910Z,102809.72
2018-01-08T12:59:02.821Z,102802.98
2018-01-08T13:02:14.265Z,102799.27
2018-01-08T13:05:24.862Z,102802.39
2018-01-08T13:08:34.399Z,102798.16
2018-01-08T13:11:46.544Z,102793.61
2018-01-08T13:14:57.032Z,102796.84
2018-01-08T13:18:06.271Z,102794.89
2018-01-08T13:21:19.280Z,102792.47
2018-01-08T13:24:30.179Z,102794.25
2018-01-08T13:27:42.847Z,102792.03
2018-01-08T13:30:54.264Z,102792.51
2018-01-08T13:34:04.571Z,102789.28
2018-01-08T13:37:19.640Z,102791.80
2018-01-08T13:40:29.937Z,102786.78
2018-01-08T13:43:39.356Z,102787.39
2018-01-08T13:46:52.700Z,102778.20
2018-01-08T13:50:02.971Z,102769.47
2018-01-08T13:53:17.090Z,102769.21
2018-01-08T13:56:35.569Z,102763.94
2018-01-08T13:59:48.963Z,102768.13
2018-01-08T14:03:06.624Z,102771.03
2018-01-08T14:06:17.402Z,102777.87
2018-01-08T14:09:30.743Z,102779.63
2018-01-08T14:12:40.726Z,102781.15
2018-01-08T14:15:50.239Z,102787.13
2018-01-08T14:19:02.012Z,102782.36
2018-01-08T14:22:13.193Z,102778.01
2018-01-08T14:25:25.996Z,102780.83
2018-01-08T14:28:36.621Z,102774.82
2018-01-08T14:31:47.313Z,102782.16
2018-01-08T14:34:56.641Z,102787.14
2018-01-08T14:38:08.020Z,102777.27
2018-01-08T14:41:19.767Z,102774.58
2018-01-08T14:44:31.978Z,102774.08
2018-01-08T14:47:42.019Z,102782.83
2018-01-08T14:50:56.904Z,102778.53
2018-01-08T14:54:06.946Z,102775.88
2018-01-08T14:57:34.667Z,102784.05
2018-01-08T15:00:45.811Z,102781.50
2018-01-08T15:03:56.137Z,102778.29
2018-01-08T15:07:06.995Z,102779.39
2018-01-08T15:10:18.633Z,102778.53
2018-01-08T15:13:28.903Z,102783.75
2018-01-08T15:16:40.444Z,102781.59
2018-01-08T15:19:52.467Z,102784.47
2018-01-08T15:23:02.554Z,102775.97
2018-01-08T15:26:14.928Z,102767.36
2018-01-08T15:29:29.216Z,102770.93
2018-01-08T15:32:39.869Z,102767.05
2018-01-08T15:35:50.455Z,102766.98
2018-01-08T15:39:00.483Z,102763.41
2018-01-08T15:42:14.908Z,102770.31
2018-01-08T15:45:24.432Z,102765.45
2018-01-08T15:48:35.263Z,102759.28
2018-01-08T15:51:45.658Z,102760.72
2018-01-08T15:54:55.470Z,102748.55
2018-01-08T15:58:06.452Z,102755.53
2018-01-08T16:01:21.275Z,102761.63
2018-01-08T16:04:31.450Z,102755.69
2018-01-08T16:07:41.304Z,102748.30
2018-01-08T16:10:52.505Z,102742.83
2018-01-08T16:14:04.122Z,102736.91
2018-01-08T16:17:13.147Z,102738.45
2018-01-08T16:20:23.616Z,102736.03
2018-01-08T16:23:33.319Z,102729.94
2018-01-08T16:26:44.032Z,102734.67
2018-01-08T16:29:55.276Z,102730.20
2018-01-08T16:33:07.742Z,102738.02
2018-01-08T16:36:16.938Z,102733.86
2018-01-08T16:39:25.237Z,102731.48
2018-01-08T16:42:33.407Z,102728.45
2018-01-08T16:49:00.912Z,102713.78
2018-01-08T16:52:07.757Z,102710.98
2018-01-08T16:55:17.161Z,102711.05
2018-01-08T16:58:26.939Z,102698.05
2018-01-08T17:01:35.329Z,102701.32
2018-01-08T17:04:44.080Z,102698.83
2018-01-08T17:07:54.822Z,102692.38
2018-01-08T17:11:02.914Z,102693.06
2018-01-08T17:14:15.106Z,102701.55
2018-01-08T17:17:24.377Z,102699.69
2018-01-08T17:20:32.856Z,102699.39
2018-01-08T17:23:42.002Z,102695.16
2018-01-08T17:26:50.853Z,102688.98
2018-01-08T17:30:01.354Z,102691.30
2018-01-08T17:33:11.748Z,102681.56
2018-01-08T17:36:21.025Z,102678.38
2018-01-08T17:39:28.359Z,102683.24
2018-01-08T17:42:36.887Z,102679.36
2018-01-08T17:45:50.522Z,102680.94
2018-01-08T17:48:59.878Z,102689.84
2018-01-08T17:52:13.854Z,102688.89
2018-01-08T17:55:25.217Z,102676.33
2018-01-08T17:58:34.480Z,102677.71
2018-01-08T18:01:47.246Z,102669.82
2018-01-08T18:04:56.750Z,102673.34
2018-01-08T18:08:10.473Z,102673.91
2018-01-08T18:11:20.642Z,102683.05
2018-01-08T18:14:32.318Z,102673.84
2018-01-08T18:17:42.887Z,102680.06
2018-01-08T18:20:55.018Z,102683.45
2018-01-08T18:24:03.735Z,102675.45
2018-01-08T18:27:24.648Z,102673.61
2018-01-08T18:30:35.889Z,102672.50
2018-01-08T18:33:46.818Z,102664.39
2018-01-08T18:36:56.869Z,102671.92
2018-01-08T18:40:05.193Z,102669.18
2018-01-08T18:43:13.151Z,102665.02
2018-01-08T18:46:30.089Z,102661.07
2018-01-08T18:49:41.866Z,102654.65
2018-01-08T18:52:53.156Z,102660.64
2018-01-08T18:56:09.101Z,102662.53
2018-01-08T18:59:29.918Z,102660.16
2018-01-08T19:03:06.201Z,102655.16
2018-01-08T19:06:41.627Z,102664.14
2018-01-08T19:13:35.817Z,102671.97
2018-01-08T19:16:58.575Z,102663.31
2018-01-08T19:20:14.466Z,102655.95
2018-01-08T19:23:34.889Z,102647.91
2018-01-08T19:26:54.919Z,102650.64
2018-01-08T19:30:12.034Z,102645.36
2018-01-08T19:33:38.568Z,102642.95
2018-01-08T19:37:01.047Z,102649.50
2018-01-08T19:40:34.105Z,102644.70
2018-01-08T19:47:41.098Z,102642.11
2018-01-08T19:51:17.566Z,102629.05
2018-01-08T19:54:59.426Z,102628.55
2018-01-08T19:58:17.356Z,102619.66
2018-01-08T20:01:40.155Z,102616.92
2018-01-08T20:04:59.372Z,102611.33
2018-01-08T20:08:22.882Z,102608.69
2018-01-08T20:11:36.304Z,102610.98
2018-01-08T20:15:02.675Z,102609.62
2018-01-08T20:18:25.843Z,102612.95
2018-01-08T20:21:36.693Z,102598.09
2018-01-08T20:24:46.816Z,102602.91
2018-01-08T20:27:54.979Z,102595.91
2018-01-08T20:31:22.187Z,102605.62
2018-01-08T20:34:49.931Z,102603.13
2018-01-08T20:41:55.983Z,102591.43
2018-01-08T20:45:20.116Z,102592.41
2018-01-08T20:48:42.526Z,102586.45
2018-01-08T20:52:06.734Z,102571.70
2018-01-08T20:55:43.228Z,102566.92
2018-01-08T20:59:03.127Z,102561.36
2018-01-08T21:02:17.480Z,102551.91
2018-01-08T21:05:29.647Z,102545.18
2018-01-08T21:08:39.729Z,102538.84
2018-01-08T21:12:02.972Z,102539.12
2018-01-08T21:15:20.008Z,102540.38
2018-01-08T21:18:30.776Z,102531.27
2018-01-08T21:21:41.017Z,102529.63
2018-01-08T21:24:52.675Z,102529.13
2018-01-08T21:28:06.105Z,102521.55
2018-01-08T21:31:20.682Z,102527.44
2018-01-08T21:34:30.750Z,102514.56
2018-01-08T21:37:40.225Z,102508.02
2018-01-08T21:40:53.961Z,102505.28
2018-01-08T21:44:03.821Z,102488.80
2018-01-08T21:47:13.521Z,102485.56
2018-01-08T21:50:23.381Z,102490.01
2018-01-08T21:53:31.205Z,102486.92
2018-01-08T21:56:39.507Z,102490.70
2018-01-08T22:03:05.719Z,102482.05
2018-01-08T22:06:16.927Z,102472.84
2018-01-08T22:09:26.852Z,102469.28
2018-01-08T22:12:38.217Z,102464.39
2018-01-08T22:15:51.059Z,102454.40
2018-01-08T22:19:06.293Z,102446.09
2018-01-08T22:22:14.853Z,102434.03
2018-01-08T22:25:24.475Z,102421.23
2018-01-08T22:28:36.584Z,102428.42
2018-01-08T22:31:48.143Z,102427.34
2018-01-08T22:34:57.287Z,102420.55
2018-01-08T22:38:09.601Z,102415.66
2018-01-08T22:41:21.624Z,102413.70
2018-01-08T22:44:30.049Z,102409.05
2018-01-08T22:47:40.154Z,102397.88
2018-01-08T22:50:51.314Z,102391.67
2018-01-08T22:54:00.284Z,102376.67
2018-01-08T22:57:10.947Z,102375.06
2018-01-08T23:00:22.059Z,102366.95
2018-01-08T23:03:32.383Z,102357.78
2018-01-08T23:06:42.505Z,102354.92
2018-01-08T23:09:55.392Z,102345.28
2018-01-08T23:13:05.101Z,102348.97
2018-01-08T23:16:14.176Z,102348.66
2018-01-08T23:19:26.172Z,102334.03
2018-01-08T23:22:40.270Z,102334.87
2018-01-08T23:25:52.863Z,102330.23
2018-01-08T23:29:06.157Z,102310.95
2018-01-08T23:32:16.966Z,102309.79
2018-01-08T23:35:25.762Z,102297.86
2018-01-08T23:38:39.211Z,102294.58
2018-01-08T23:41:55.401Z,102291.75
2018-01-08T23:48:38.392Z,102280.31
2018-01-08T23:51:52.119Z,102294.55
2018-01-08T23:55:02.499Z,102287.50
2018-01-08T23:58:11.997Z,102290.09
